sensor_id;sensor_type;location;lat;lon;timestamp;pressure;altitude;pressure_sealevel;temperature;humidity
69411;BME280;56604;48.652;9.194;2023-04-25T00:01:37;95652.75;;;7.42;82.03
69411;BME280;56604;48.652;9.194;2023-04-25T00:04:03;95645.78;;;7.48;81.54
69411;BME280;56604;48.652;9.194;2023-04-25T00:06:31;95648.84;;;7.40;81.96
69411;BME280;56604;48.652;9.194;2023-04-25T00:08:57;95642.06;;;7.44;81.81
69411;BME280;56604;48.652;9.194;2023-04-25T00:11:23;95644.50;;;7.51;82.16
69411;BME280;56604;48.652;9.194;2023-04-25T00:13:48;95635.31;;;7.48;82.32
69411;BME280;56604;48.652;9.194;2023-04-25T00:16:16;95635.78;;;7.45;81.66
69411;BME280;56604;48.652;9.194;2023-04-25T00:18:42;95629.13;;;7.54;81.72
69411;BME280;56604;48.652;9.194;2023-04-25T00:21:07;95637.69;;;7.50;82.00
69411;BME280;56604;48.652;9.194;2023-04-25T00:23:33;95642.31;;;7.42;82.32
69411;BME280;56604;48.652;9.194;2023-04-25T00:26:00;95647.38;;;7.49;82.70
69411;BME280;56604;48.652;9.194;2023-04-25T00:28:26;95646.16;;;7.35;82.55
69411;BME280;56604;48.652;9.194;2023-04-25T00:30:51;95640.44;;;7.38;82.91
69411;BME280;56604;48.652;9.194;2023-04-25T00:33:16;95643.34;;;7.41;82.52
69411;BME280;56604;48.652;9.194;2023-04-25T00:35:42;95648.03;;;7.39;82.24
69411;BME280;56604;48.652;9.194;2023-04-25T00:38:07;95646.09;;;7.52;81.63
69411;BME280;56604;48.652;9.194;2023-04-25T00:40:32;95643.47;;;7.30;82.39
69411;BME280;56604;48.652;9.194;2023-04-25T00:42:58;95646.22;;;7.40;82.28
69411;BME280;56604;48.652;9.194;2023-04-25T00:45:27;95635.78;;;7.45;81.73
69411;BME280;56604;48.652;9.194;2023-04-25T00:47:53;95632.81;;;7.36;81.65
69411;BME280;56604;48.652;9.194;2023-04-25T00:50:19;95635.97;;;7.16;83.02
69411;BME280;56604;48.652;9.194;2023-04-25T00:52:44;95623.38;;;7.13;83.46
69411;BME280;56604;48.652;9.194;2023-04-25T00:55:11;95641.13;;;7.11;84.27
69411;BME280;56604;48.652;9.194;2023-04-25T00:57:37;95633.91;;;7.18;84.15
69411;BME280;56604;48.652;9.194;2023-04-25T01:00:06;95635.38;;;7.09;84.58
69411;BME280;56604;48.652;9.194;2023-04-25T01:02:32;95626.66;;;7.26;84.25
69411;BME280;56604;48.652;9.194;2023-04-25T01:04:57;95628.06;;;7.33;83.49
69411;BME280;56604;48.652;9.194;2023-04-25T01:07:23;95629.84;;;7.28;83.31
69411;BME280;56604;48.652;9.194;2023-04-25T01:09:48;95627.84;;;7.35;83.18
69411;BME280;56604;48.652;9.194;2023-04-25T01:12:16;95620.00;;;7.13;83.79
69411;BME280;56604;48.652;9.194;2023-04-25T01:14:41;95616.59;;;7.12;83.72
69411;BME280;56604;48.652;9.194;2023-04-25T01:17:06;95623.28;;;7.03;84.49
69411;BME280;56604;48.652;9.194;2023-04-25T01:19:34;95610.22;;;7.03;84.68
69411;BME280;56604;48.652;9.194;2023-04-25T01:21:59;95601.88;;;7.06;85.07
69411;BME280;56604;48.652;9.194;2023-04-25T01:24:25;95609.84;;;7.16;84.29
69411;BME280;56604;48.652;9.194;2023-04-25T01:26:51;95604.19;;;7.25;84.17
69411;BME280;56604;48.652;9.194;2023-04-25T01:29:17;95602.63;;;7.24;83.71
69411;BME280;56604;48.652;9.194;2023-04-25T01:31:44;95607.09;;;7.28;83.61
69411;BME280;56604;48.652;9.194;2023-04-25T01:34:10;95614.44;;;7.31;83.38
69411;BME280;56604;48.652;9.194;2023-04-25T01:36:35;95613.25;;;7.39;82.92
69411;BME280;56604;48.652;9.194;2023-04-25T01:39:01;95610.63;;;7.39;82.61
69411;BME280;56604;48.652;9.194;2023-04-25T01:41:27;95607.00;;;7.40;82.82
69411;BME280;56604;48.652;9.194;2023-04-25T01:43:52;95611.25;;;7.46;83.23
69411;BME280;56604;48.652;9.194;2023-04-25T01:46:18;95607.59;;;7.47;82.86
69411;BME280;56604;48.652;9.194;2023-04-25T01:48:43;95597.97;;;7.31;83.24
69411;BME280;56604;48.652;9.194;2023-04-25T01:51:09;95602.72;;;7.34;82.83
69411;BME280;56604;48.652;9.194;2023-04-25T01:53:36;95606.09;;;7.29;83.87
69411;BME280;56604;48.652;9.194;2023-04-25T01:56:02;95601.16;;;7.33;83.01
69411;BME280;56604;48.652;9.194;2023-04-25T01:58:27;95605.59;;;7.32;83.36
69411;BME280;56604;48.652;9.194;2023-04-25T02:00:52;95603.41;;;7.24;83.54
69411;BME280;56604;48.652;9.194;2023-04-25T02:03:17;95608.75;;;7.34;83.11
69411;BME280;56604;48.652;9.194;2023-04-25T02:05:43;95596.69;;;7.33;82.69
69411;BME280;56604;48.652;9.194;2023-04-25T02:08:08;95601.00;;;7.22;83.58
69411;BME280;56604;48.652;9.194;2023-04-25T02:10:34;95602.13;;;7.27;83.06
69411;BME280;56604;48.652;9.194;2023-04-25T02:13:00;95598.97;;;7.25;83.67
69411;BME280;56604;48.652;9.194;2023-04-25T02:15:26;95602.00;;;7.16;83.19
69411;BME280;56604;48.652;9.194;2023-04-25T02:17:51;95589.41;;;7.13;83.19
69411;BME280;56604;48.652;9.194;2023-04-25T02:20:21;95594.28;;;7.27;83.24
69411;BME280;56604;48.652;9.194;2023-04-25T02:22:47;95581.31;;;6.93;83.86
69411;BME280;56604;48.652;9.194;2023-04-25T02:25:12;95583.06;;;6.87;84.83
69411;BME280;56604;48.652;9.194;2023-04-25T02:27:38;95585.31;;;6.79;85.98
69411;BME280;56604;48.652;9.194;2023-04-25T02:30:04;95577.28;;;6.63;86.51
69411;BME280;56604;48.652;9.194;2023-04-25T02:32:31;95578.16;;;6.69;87.03
69411;BME280;56604;48.652;9.194;2023-04-25T02:34:57;95571.25;;;6.63;86.78
69411;BME280;56604;48.652;9.194;2023-04-25T02:37:24;95580.09;;;6.79;86.68
69411;BME280;56604;48.652;9.194;2023-04-25T02:39:50;95569.47;;;6.85;86.79
69411;BME280;56604;48.652;9.194;2023-04-25T02:42:15;95569.63;;;6.79;86.38
69411;BME280;56604;48.652;9.194;2023-04-25T02:44:40;95578.53;;;6.78;86.14
69411;BME280;56604;48.652;9.194;2023-04-25T02:47:06;95584.03;;;6.81;86.20
69411;BME280;56604;48.652;9.194;2023-04-25T02:49:31;95581.66;;;6.80;85.35
69411;BME280;56604;48.652;9.194;2023-04-25T02:51:56;95577.97;;;6.75;85.36
69411;BME280;56604;48.652;9.194;2023-04-25T02:54:22;95582.31;;;6.70;85.37
69411;BME280;56604;48.652;9.194;2023-04-25T02:56:47;95576.84;;;6.71;84.87
69411;BME280;56604;48.652;9.194;2023-04-25T02:59:12;95574.78;;;6.73;84.90
69411;BME280;56604;48.652;9.194;2023-04-25T03:01:38;95567.44;;;6.70;85.16
69411;BME280;56604;48.652;9.194;2023-04-25T03:04:03;95566.34;;;6.66;85.31
69411;BME280;56604;48.652;9.194;2023-04-25T03:06:28;95566.88;;;6.68;85.11
69411;BME280;56604;48.652;9.194;2023-04-25T03:08:54;95572.06;;;6.63;85.13
69411;BME280;56604;48.652;9.194;2023-04-25T03:11:19;95564.75;;;6.65;84.88
69411;BME280;56604;48.652;9.194;2023-04-25T03:13:45;95561.06;;;6.61;85.29
69411;BME280;56604;48.652;9.194;2023-04-25T03:16:10;95561.13;;;6.66;84.94
69411;BME280;56604;48.652;9.194;2023-04-25T03:18:36;95556.84;;;6.60;84.89
69411;BME280;56604;48.652;9.194;2023-04-25T03:21:01;95556.91;;;6.65;84.78
69411;BME280;56604;48.652;9.194;2023-04-25T03:23:27;95560.00;;;6.62;84.52
69411;BME280;56604;48.652;9.194;2023-04-25T03:25:52;95556.84;;;6.60;84.89
69411;BME280;56604;48.652;9.194;2023-04-25T03:28:17;95556.38;;;6.63;84.51
69411;BME280;56604;48.652;9.194;2023-04-25T03:30:43;95556.91;;;6.65;84.20
69411;BME280;56604;48.652;9.194;2023-04-25T03:33:08;95553.22;;;6.61;84.76
69411;BME280;56604;48.652;9.194;2023-04-25T03:35:33;95553.34;;;6.71;83.81
69411;BME280;56604;48.652;9.194;2023-04-25T03:37:59;95547.50;;;6.64;84.12
69411;BME280;56604;48.652;9.194;2023-04-25T03:40:24;95548.66;;;6.73;83.72
69411;BME280;56604;48.652;9.194;2023-04-25T03:42:49;95548.13;;;6.71;83.82
69411;BME280;56604;48.652;9.194;2023-04-25T03:45:15;95547.88;;;6.73;83.24
69411;BME280;56604;48.652;9.194;2023-04-25T03:47:40;95539.59;;;6.59;84.00
69411;BME280;56604;48.652;9.194;2023-04-25T03:50:06;95547.69;;;6.58;84.38
69411;BME280;56604;48.652;9.194;2023-04-25T03:52:31;95543.84;;;6.65;84.31
69411;BME280;56604;48.652;9.194;2023-04-25T03:54:56;95557.00;;;6.70;83.81
69411;BME280;56604;48.652;9.194;2023-04-25T03:57:22;95552.72;;;6.64;83.96
69411;BME280;56604;48.652;9.194;2023-04-25T03:59:47;95558.44;;;6.61;84.17
69411;BME280;56604;48.652;9.194;2023-04-25T04:02:12;95568.31;;;6.59;84.04
69411;BME280;56604;48.652;9.194;2023-04-25T04:04:38;95557.41;;;6.62;84.55
69411;BME280;56604;48.652;9.194;2023-04-25T04:07:03;95554.78;;;6.62;84.35
69411;BME280;56604;48.652;9.194;2023-04-25T04:09:28;95561.28;;;6.60;84.19
69411;BME280;56604;48.652;9.194;2023-04-25T04:11:54;95555.03;;;6.61;83.99
69411;BME280;56604;48.652;9.194;2023-04-25T04:14:19;95563.66;;;6.61;84.08
69411;BME280;56604;48.652;9.194;2023-04-25T04:16:44;95562.69;;;6.67;83.97
69411;BME280;56604;48.652;9.194;2023-04-25T04:19:10;95573.38;;;6.66;84.22
69411;BME280;56604;48.652;9.194;2023-04-25T04:21:35;95565.38;;;6.72;84.54
69411;BME280;56604;48.652;9.194;2023-04-25T04:24:01;95560.16;;;6.72;84.11
69411;BME280;56604;48.652;9.194;2023-04-25T04:26:26;95565.63;;;6.71;83.93
69411;BME280;56604;48.652;9.194;2023-04-25T04:28:52;95574.31;;;6.76;84.14
69411;BME280;56604;48.652;9.194;2023-04-25T04:31:20;95564.41;;;6.79;84.00
69411;BME280;56604;48.652;9.194;2023-04-25T04:33:46;95563.16;;;6.81;83.58
69411;BME280;56604;48.652;9.194;2023-04-25T04:36:12;95565.63;;;6.71;84.01
69411;BME280;56604;48.652;9.194;2023-04-25T04:38:38;95574.22;;;6.49;84.47
69411;BME280;56604;48.652;9.194;2023-04-25T04:41:03;95575.84;;;6.72;83.88
69411;BME280;56604;48.652;9.194;2023-04-25T04:43:28;95574.00;;;6.73;83.71
69411;BME280;56604;48.652;9.194;2023-04-25T04:45:54;95573.91;;;6.85;83.46
69411;BME280;56604;48.652;9.194;2023-04-25T04:48:21;95570.25;;;6.86;83.24
69411;BME280;56604;48.652;9.194;2023-04-25T04:50:47;95582.28;;;6.87;82.95
69411;BME280;56604;48.652;9.194;2023-04-25T04:53:12;95580.84;;;6.96;82.77
69411;BME280;56604;48.652;9.194;2023-04-25T04:55:38;95584.06;;;7.03;82.17
69411;BME280;56604;48.652;9.194;2023-04-25T04:58:03;95593.47;;;7.04;81.97
69411;BME280;56604;48.652;9.194;2023-04-25T05:00:28;95588.31;;;7.09;82.16
69411;BME280;56604;48.652;9.194;2023-04-25T05:02:55;95583.41;;;7.13;81.58
69411;BME280;56604;48.652;9.194;2023-04-25T05:05:20;95589.34;;;7.08;82.03
69411;BME280;56604;48.652;9.194;2023-04-25T05:07:45;95584.66;;;7.10;81.73
69411;BME280;56604;48.652;9.194;2023-04-25T05:10:11;95588.84;;;7.11;81.34
69411;BME280;56604;48.652;9.194;2023-04-25T05:12:36;95587.91;;;7.17;81.52
69411;BME280;56604;48.652;9.194;2023-04-25T05:15:01;95592.69;;;7.26;81.48
69411;BME280;56604;48.652;9.194;2023-04-25T05:17:27;95593.38;;;7.38;81.09
69411;BME280;56604;48.652;9.194;2023-04-25T05:19:52;95589.63;;;7.56;79.70
69411;BME280;56604;48.652;9.194;2023-04-25T05:22:17;95588.84;;;7.55;80.33
69411;BME280;56604;48.652;9.194;2023-04-25T05:24:43;95588.41;;;7.63;79.42
69411;BME280;56604;48.652;9.194;2023-04-25T05:27:08;95589.53;;;7.73;79.54
69411;BME280;56604;48.652;9.194;2023-04-25T05:29:33;95592.72;;;7.75;79.14
69411;BME280;56604;48.652;9.194;2023-04-25T05:32:00;95594.16;;;7.65;79.69
69411;BME280;56604;48.652;9.194;2023-04-25T05:34:25;95601.03;;;7.44;81.19
69411;BME280;56604;48.652;9.194;2023-04-25T05:36:51;95598.59;;;7.38;81.49
69411;BME280;56604;48.652;9.194;2023-04-25T05:39:16;95604.41;;;7.45;82.28
69411;BME280;56604;48.652;9.194;2023-04-25T05:41:42;95596.97;;;7.32;82.20
69411;BME280;56604;48.652;9.194;2023-04-25T05:44:08;95599.31;;;7.33;83.36
69411;BME280;56604;48.652;9.194;2023-04-25T05:46:33;95597.63;;;7.44;83.35
69411;BME280;56604;48.652;9.194;2023-04-25T05:48:58;95598.66;;;7.43;83.43
69411;BME280;56604;48.652;9.194;2023-04-25T05:51:24;95598.00;;;7.80;83.12
69411;BME280;56604;48.652;9.194;2023-04-25T05:53:49;95599.22;;;7.99;82.36
69411;BME280;56604;48.652;9.194;2023-04-25T05:56:14;95596.94;;;8.08;80.83
69411;BME280;56604;48.652;9.194;2023-04-25T05:58:40;95602.03;;;7.93;82.43
69411;BME280;56604;48.652;9.194;2023-04-25T06:01:05;95592.16;;;8.32;82.61
69411;BME280;56604;48.652;9.194;2023-04-25T06:03:30;95597.03;;;8.45;80.14
69411;BME280;56604;48.652;9.194;2023-04-25T06:05:56;95590.63;;;8.68;79.38
69411;BME280;56604;48.652;9.194;2023-04-25T06:08:21;95587.81;;;8.80;79.48
69411;BME280;56604;48.652;9.194;2023-04-25T06:10:46;95586.72;;;8.76;77.18
69411;BME280;56604;48.652;9.194;2023-04-25T06:13:12;95582.94;;;9.93;75.33
69411;BME280;56604;48.652;9.194;2023-04-25T06:15:37;95577.22;;;10.67;71.64
69411;BME280;56604;48.652;9.194;2023-04-25T06:18:02;95577.72;;;10.85;70.58
69411;BME280;56604;48.652;9.194;2023-04-25T06:20:28;95569.22;;;11.03;69.49
69411;BME280;56604;48.652;9.194;2023-04-25T06:22:53;95573.03;;;11.96;65.91
69411;BME280;56604;48.652;9.194;2023-04-25T06:25:19;95572.88;;;12.17;65.11
69411;BME280;56604;48.652;9.194;2023-04-25T06:27:45;95583.69;;;12.15;64.63
69411;BME280;56604;48.652;9.194;2023-04-25T06:30:10;95576.22;;;11.83;63.87
69411;BME280;56604;48.652;9.194;2023-04-25T06:32:37;95580.09;;;11.51;64.41
69411;BME280;56604;48.652;9.194;2023-04-25T06:35:03;95579.09;;;11.37;65.07
69411;BME280;56604;48.652;9.194;2023-04-25T06:37:28;95584.47;;;11.06;66.15
69411;BME280;56604;48.652;9.194;2023-04-25T06:39:54;95588.75;;;10.66;67.14
69411;BME280;56604;48.652;9.194;2023-04-25T06:42:19;95588.78;;;10.25;67.02
69411;BME280;56604;48.652;9.194;2023-04-25T06:44:45;95592.28;;;9.48;70.07
69411;BME280;56604;48.652;9.194;2023-04-25T06:47:10;95589.50;;;9.80;69.30
69411;BME280;56604;48.652;9.194;2023-04-25T06:49:35;95583.97;;;9.71;69.38
69411;BME280;56604;48.652;9.194;2023-04-25T06:52:01;95592.81;;;9.44;70.90
69411;BME280;56604;48.652;9.194;2023-04-25T06:54:26;95588.38;;;9.45;71.12
69411;BME280;56604;48.652;9.194;2023-04-25T06:56:53;95582.00;;;9.26;70.72
69411;BME280;56604;48.652;9.194;2023-04-25T06:59:19;95589.16;;;9.45;70.57
69411;BME280;56604;48.652;9.194;2023-04-25T07:01:44;95587.28;;;9.31;70.84
69411;BME280;56604;48.652;9.194;2023-04-25T07:04:10;95593.19;;;9.06;71.59
69411;BME280;56604;48.652;9.194;2023-04-25T07:06:35;95589.56;;;9.22;71.42
69411;BME280;56604;48.652;9.194;2023-04-25T07:09:03;95599.28;;;9.16;72.76
69411;BME280;56604;48.652;9.194;2023-04-25T07:11:28;95603.38;;;8.97;71.98
69411;BME280;56604;48.652;9.194;2023-04-25T07:13:54;95602.09;;;9.10;72.23
69411;BME280;56604;48.652;9.194;2023-04-25T07:16:19;95613.78;;;8.87;72.61
69411;BME280;56604;48.652;9.194;2023-04-25T07:18:44;95597.66;;;8.63;74.76
69411;BME280;56604;48.652;9.194;2023-04-25T07:21:10;95599.59;;;8.77;72.68
69411;BME280;56604;48.652;9.194;2023-04-25T07:23:35;95610.75;;;8.63;75.70
69411;BME280;56604;48.652;9.194;2023-04-25T07:26:00;95593.75;;;8.65;76.34
69411;BME280;56604;48.652;9.194;2023-04-25T07:28:26;95610.25;;;8.66;76.35
69411;BME280;56604;48.652;9.194;2023-04-25T07:30:51;95606.50;;;8.51;77.07
69411;BME280;56604;48.652;9.194;2023-04-25T07:33:16;95616.78;;;8.63;77.39
69411;BME280;56604;48.652;9.194;2023-04-25T07:35:42;95616.53;;;8.65;77.31
69411;BME280;56604;48.652;9.194;2023-04-25T07:38:07;95614.66;;;8.60;77.89
69411;BME280;56604;48.652;9.194;2023-04-25T07:40:33;95620.22;;;8.37;78.68
69411;BME280;56604;48.652;9.194;2023-04-25T07:42:59;95626.31;;;8.42;78.31
69411;BME280;56604;48.652;9.194;2023-04-25T07:45:24;95628.31;;;8.35;80.27
69411;BME280;56604;48.652;9.194;2023-04-25T07:47:49;95629.63;;;8.32;79.83
69411;BME280;56604;48.652;9.194;2023-04-25T07:50:15;95634.13;;;8.37;80.36
69411;BME280;56604;48.652;9.194;2023-04-25T07:52:40;95633.56;;;8.35;80.51
69411;BME280;56604;48.652;9.194;2023-04-25T07:55:06;95639.75;;;8.24;81.35
69411;BME280;56604;48.652;9.194;2023-04-25T07:57:31;95641.66;;;8.33;81.17
69411;BME280;56604;48.652;9.194;2023-04-25T07:59:56;95643.44;;;8.28;81.31
69411;BME280;56604;48.652;9.194;2023-04-25T08:02:22;95649.50;;;8.28;81.41
69411;BME280;56604;48.652;9.194;2023-04-25T08:04:47;95658.19;;;8.34;81.88
69411;BME280;56604;48.652;9.194;2023-04-25T08:07:14;95651.97;;;8.40;81.69
69411;BME280;56604;48.652;9.194;2023-04-25T08:09:40;95656.50;;;8.50;80.89
69411;BME280;56604;48.652;9.194;2023-04-25T08:12:05;95661.75;;;8.23;80.63
69411;BME280;56604;48.652;9.194;2023-04-25T08:14:30;95658.28;;;8.44;80.56
69411;BME280;56604;48.652;9.194;2023-04-25T08:17:03;95668.06;;;8.27;80.79
69411;BME280;56604;48.652;9.194;2023-04-25T08:19:29;95664.94;;;8.30;80.39
69411;BME280;56604;48.652;9.194;2023-04-25T08:21:55;95678.13;;;8.13;81.34
69411;BME280;56604;48.652;9.194;2023-04-25T08:24:21;95675.06;;;8.21;82.35
69411;BME280;56604;48.652;9.194;2023-04-25T08:26:47;95678.47;;;8.22;81.37
69411;BME280;56604;48.652;9.194;2023-04-25T08:29:12;95685.81;;;8.20;82.49
69411;BME280;56604;48.652;9.194;2023-04-25T08:31:37;95690.00;;;8.21;82.81
69411;BME280;56604;48.652;9.194;2023-04-25T08:34:03;95691.50;;;8.39;83.83
69411;BME280;56604;48.652;9.194;2023-04-25T08:36:28;95695.63;;;8.34;82.74
69411;BME280;56604;48.652;9.194;2023-04-25T08:38:53;95700.25;;;8.49;82.18
69411;BME280;56604;48.652;9.194;2023-04-25T08:41:20;95703.88;;;8.43;82.58
69411;BME280;56604;48.652;9.194;2023-04-25T08:43:48;95705.94;;;8.41;82.51
69411;BME280;56604;48.652;9.194;2023-04-25T08:46:17;95704.66;;;8.44;83.22
69411;BME280;56604;48.652;9.194;2023-04-25T08:48:44;95704.16;;;8.47;83.71
69411;BME280;56604;48.652;9.194;2023-04-25T08:51:23;95711.00;;;8.53;83.79
69411;BME280;56604;48.652;9.194;2023-04-25T08:53:51;95721.81;;;8.34;83.19
69411;BME280;56604;48.652;9.194;2023-04-25T08:56:17;95722.81;;;8.28;83.53
69411;BME280;56604;48.652;9.194;2023-04-25T08:58:44;95723.94;;;8.38;83.17
69411;BME280;56604;48.652;9.194;2023-04-25T09:01:11;95722.59;;;8.35;82.82
69411;BME280;56604;48.652;9.194;2023-04-25T09:03:36;95727.25;;;8.28;82.62
69411;BME280;56604;48.652;9.194;2023-04-25T09:06:02;95731.00;;;8.10;81.65
69411;BME280;56604;48.652;9.194;2023-04-25T09:08:29;95729.13;;;8.05;82.08
69411;BME280;56604;48.652;9.194;2023-04-25T09:10:55;95738.59;;;8.11;82.55
69411;BME280;56604;48.652;9.194;2023-04-25T09:13:25;95730.19;;;8.09;82.55
69411;BME280;56604;48.652;9.194;2023-04-25T09:15:56;95734.28;;;8.00;82.94
69411;BME280;56604;48.652;9.194;2023-04-25T09:18:32;95738.84;;;7.88;84.29
69411;BME280;56604;48.652;9.194;2023-04-25T09:21:06;95742.56;;;7.92;84.76
69411;BME280;56604;48.652;9.194;2023-04-25T09:23:40;95747.16;;;7.80;86.13
69411;BME280;56604;48.652;9.194;2023-04-25T09:26:07;95759.19;;;7.81;86.04
69411;BME280;56604;48.652;9.194;2023-04-25T09:28:32;95763.75;;;7.91;84.57
69411;BME280;56604;48.652;9.194;2023-04-25T09:31:00;95765.50;;;7.85;84.24
69411;BME280;56604;48.652;9.194;2023-04-25T09:33:30;95759.34;;;7.96;84.12
69411;BME280;56604;48.652;9.194;2023-04-25T09:36:04;95776.69;;;8.02;84.52
69411;BME280;56604;48.652;9.194;2023-04-25T09:38:31;95775.47;;;7.88;85.18
69411;BME280;56604;48.652;9.194;2023-04-25T09:40:58;95775.97;;;7.85;85.59
69411;BME280;56604;48.652;9.194;2023-04-25T09:43:24;95773.72;;;7.94;85.99
69411;BME280;56604;48.652;9.194;2023-04-25T09:45:51;95775.47;;;7.88;86.45
69411;BME280;56604;48.652;9.194;2023-04-25T09:48:22;95786.69;;;7.83;85.35
69411;BME280;56604;48.652;9.194;2023-04-25T09:51:11;95791.38;;;7.81;86.05
69411;BME280;56604;48.652;9.194;2023-04-25T09:53:41;95793.75;;;7.83;86.80
69411;BME280;56604;48.652;9.194;2023-04-25T09:56:08;95786.03;;;7.93;86.12
69411;BME280;56604;48.652;9.194;2023-04-25T09:58:35;95795.34;;;7.84;85.89
69411;BME280;56604;48.652;9.194;2023-04-25T10:01:05;95799.41;;;7.97;86.71
69411;BME280;56604;48.652;9.194;2023-04-25T10:03:31;95791.66;;;7.85;84.63
69411;BME280;56604;48.652;9.194;2023-04-25T10:06:00;95796.69;;;7.86;83.83
69411;BME280;56604;48.652;9.194;2023-04-25T10:08:34;95799.34;;;7.70;82.79
69411;BME280;56604;48.652;9.194;2023-04-25T10:11:01;95795.44;;;7.72;82.52
69411;BME280;56604;48.652;9.194;2023-04-25T10:13:29;95799.56;;;7.68;82.00
69411;BME280;56604;48.652;9.194;2023-04-25T10:15:57;95804.09;;;7.56;82.34
69411;BME280;56604;48.652;9.194;2023-04-25T10:18:23;95806.56;;;7.46;83.10
69411;BME280;56604;48.652;9.194;2023-04-25T10:20:49;95810.78;;;7.30;83.46
69411;BME280;56604;48.652;9.194;2023-04-25T10:23:15;95815.22;;;7.29;82.56
69411;BME280;56604;48.652;9.194;2023-04-25T10:25:42;95816.63;;;7.37;82.89
69411;BME280;56604;48.652;9.194;2023-04-25T10:28:08;95818.56;;;7.25;82.47
69411;BME280;56604;48.652;9.194;2023-04-25T10:30:33;95819.03;;;7.21;83.74
69411;BME280;56604;48.652;9.194;2023-04-25T10:32:59;95822.50;;;7.27;83.92
69411;BME280;56604;48.652;9.194;2023-04-25T10:35:28;95829.09;;;7.47;83.77
69411;BME280;56604;48.652;9.194;2023-04-25T10:38:10;95822.81;;;7.48;83.06
69411;BME280;56604;48.652;9.194;2023-04-25T10:40:36;95819.97;;;7.49;83.97
69411;BME280;56604;48.652;9.194;2023-04-25T10:43:33;95829.09;;;7.47;83.21
69411;BME280;56604;48.652;9.194;2023-04-25T10:45:59;95832.16;;;7.60;82.79
69411;BME280;56604;48.652;9.194;2023-04-25T10:48:30;95830.41;;;7.83;82.33
69411;BME280;56604;48.652;9.194;2023-04-25T10:51:12;95838.72;;;7.80;82.56
69411;BME280;56604;48.652;9.194;2023-04-25T10:53:40;95842.28;;;7.74;83.04
69411;BME280;56604;48.652;9.194;2023-04-25T10:56:10;95844.47;;;8.21;82.02
69411;BME280;56604;48.652;9.194;2023-04-25T10:58:35;95841.91;;;8.04;81.37
69411;BME280;56604;48.652;9.194;2023-04-25T11:01:01;95856.69;;;7.93;82.58
69411;BME280;56604;48.652;9.194;2023-04-25T11:03:27;95850.75;;;8.20;81.51
69411;BME280;56604;48.652;9.194;2023-04-25T11:05:53;95852.00;;;7.95;83.29
69411;BME280;56604;48.652;9.194;2023-04-25T11:08:30;95865.91;;;7.79;82.14
69411;BME280;56604;48.652;9.194;2023-04-25T11:11:02;95856.47;;;8.17;82.11
69411;BME280;56604;48.652;9.194;2023-04-25T11:13:30;95858.41;;;8.04;83.00
69411;BME280;56604;48.652;9.194;2023-04-25T11:15:56;95874.31;;;7.81;82.37
69411;BME280;56604;48.652;9.194;2023-04-25T11:18:21;95869.84;;;7.98;83.61
69411;BME280;56604;48.652;9.194;2023-04-25T11:20:47;95860.47;;;8.02;81.98
69411;BME280;56604;48.652;9.194;2023-04-25T11:23:13;95874.94;;;7.88;81.96
69411;BME280;56604;48.652;9.194;2023-04-25T11:25:38;95872.06;;;8.06;82.83
69411;BME280;56604;48.652;9.194;2023-04-25T11:28:04;95866.78;;;8.23;81.83
69411;BME280;56604;48.652;9.194;2023-04-25T11:30:29;95870.72;;;8.26;82.03
69411;BME280;56604;48.652;9.194;2023-04-25T11:32:56;95872.25;;;8.22;81.85
69411;BME280;56604;48.652;9.194;2023-04-25T11:35:21;95871.22;;;8.23;82.90
69411;BME280;56604;48.652;9.194;2023-04-25T11:37:48;95875.00;;;8.32;83.41
69411;BME280;56604;48.652;9.194;2023-04-25T11:40:14;95875.22;;;8.30;82.94
69411;BME280;56604;48.652;9.194;2023-04-25T11:42:44;95877.34;;;8.33;82.23
69411;BME280;56604;48.652;9.194;2023-04-25T11:45:09;95891.06;;;8.19;84.26
69411;BME280;56604;48.652;9.194;2023-04-25T11:47:35;95895.19;;;8.15;83.63
69411;BME280;56604;48.652;9.194;2023-04-25T11:50:06;95897.53;;;7.94;81.83
69411;BME280;56604;48.652;9.194;2023-04-25T11:55:04;95898.06;;;8.35;78.88
69411;BME280;56604;48.652;9.194;2023-04-25T11:57:31;95899.59;;;8.31;79.58
69411;BME280;56604;48.652;9.194;2023-04-25T12:00:05;95895.88;;;8.93;79.50
69411;BME280;56604;48.652;9.194;2023-04-25T12:02:31;95898.47;;;9.15;76.52
69411;BME280;56604;48.652;9.194;2023-04-25T12:04:59;95901.88;;;9.48;75.96
69411;BME280;56604;48.652;9.194;2023-04-25T12:07:29;95906.16;;;9.59;74.57
69411;BME280;56604;48.652;9.194;2023-04-25T12:09:55;95912.16;;;9.86;73.12
69411;BME280;56604;48.652;9.194;2023-04-25T12:12:20;95913.53;;;9.62;73.49
69411;BME280;56604;48.652;9.194;2023-04-25T12:14:47;95910.72;;;9.68;74.15
69411;BME280;56604;48.652;9.194;2023-04-25T12:17:16;95906.63;;;10.25;72.46
69411;BME280;56604;48.652;9.194;2023-04-25T12:19:41;95914.47;;;9.78;72.38
69411;BME280;56604;48.652;9.194;2023-04-25T12:22:23;95922.53;;;9.66;72.75
69411;BME280;56604;48.652;9.194;2023-04-25T12:24:49;95922.28;;;9.73;72.13
69411;BME280;56604;48.652;9.194;2023-04-25T12:27:16;95927.72;;;9.61;74.22
69411;BME280;56604;48.652;9.194;2023-04-25T12:29:50;95928.34;;;9.14;74.83
69411;BME280;56604;48.652;9.194;2023-04-25T12:32:16;95926.88;;;9.23;75.49
69411;BME280;56604;48.652;9.194;2023-04-25T12:34:42;95933.63;;;9.19;75.38
69411;BME280;56604;48.652;9.194;2023-04-25T12:37:07;95940.41;;;8.66;75.24
69411;BME280;56604;48.652;9.194;2023-04-25T12:39:33;95936.69;;;8.84;76.53
69411;BME280;56604;48.652;9.194;2023-04-25T12:41:58;95939.06;;;8.63;77.13
69411;BME280;56604;48.652;9.194;2023-04-25T12:44:24;95941.97;;;8.89;76.73
69411;BME280;56604;48.652;9.194;2023-04-25T12:46:50;95950.81;;;8.61;77.44
69411;BME280;56604;48.652;9.194;2023-04-25T12:49:15;95944.78;;;8.82;77.01
69411;BME280;56604;48.652;9.194;2023-04-25T12:51:40;95939.53;;;9.31;74.72
69411;BME280;56604;48.652;9.194;2023-04-25T12:54:07;95944.19;;;9.51;73.21
69411;BME280;56604;48.652;9.194;2023-04-25T12:56:33;95943.06;;;10.11;72.29
69411;BME280;56604;48.652;9.194;2023-04-25T12:58:59;95943.22;;;10.32;72.20
69411;BME280;56604;48.652;9.194;2023-04-25T13:01:25;95944.09;;;10.48;72.04
69411;BME280;56604;48.652;9.194;2023-04-25T13:03:51;95937.50;;;10.45;70.47
69411;BME280;56604;48.652;9.194;2023-04-25T13:06:18;95939.19;;;10.19;71.78
69411;BME280;56604;48.652;9.194;2023-04-25T13:08:43;95935.00;;;10.71;71.08